Time;durP1;ratioP1;P1;durP2;ratioP2;P2;SDS_P1;SDS_P2;PMS_P1;PMS_P2;Temp;Humidity;BMP_temperature;BMP_pressure;BME280_temperature;BME280_humidity;BME280_pressure;Samples;Min_cycle;Max_cycle;Signal;HPM_P1;HPM_P2
2021/12/25 00:01:26;;;;;;;6.47;1.40;;;5.10;99.90;;;;;;5015123;28;20022;-92
2021/12/25 00:03:54;;;;;;;5.32;1.40;;;5.10;99.90;;;;;;4998875;28;20084;-93
2021/12/25 00:06:20;;;;;;;10.10;1.88;;;5.10;99.90;;;;;;4998017;28;20049;-92
2021/12/25 00:08:47;;;;;;;6.03;1.80;;;5.10;99.90;;;;;;4998740;28;20034;-94
2021/12/25 00:11:13;;;;;;;5.82;1.60;;;5.10;99.90;;;;;;5028734;28;20049;-92
2021/12/25 00:13:43;;;;;;;7.97;1.50;;;5.10;99.90;;;;;;5009848;28;20041;-93
2021/12/25 00:16:09;;;;;;;8.93;1.95;;;5.10;99.90;;;;;;5013115;28;20025;-94
2021/12/25 00:18:36;;;;;;;4.55;1.30;;;5.10;99.90;;;;;;5001622;28;20097;-94
2021/12/25 00:21:02;;;;;;;7.05;1.40;;;5.10;99.90;;;;;;4999708;28;20029;-93
2021/12/25 00:23:27;;;;;;;9.50;1.40;;;5.10;99.90;;;;;;4998150;28;20030;-93
2021/12/25 00:25:59;;;;;;;5.70;1.40;;;5.10;99.90;;;;;;4998378;28;20036;-93
2021/12/25 00:36:19;;;;;;;7.53;1.48;;;5.00;99.90;;;;;;5016367;28;20030;-94
2021/12/25 00:38:46;;;;;;;7.18;2.28;;;5.10;99.90;;;;;;5010077;28;20050;-94
2021/12/25 00:41:18;;;;;;;9.38;1.98;;;5.00;99.90;;;;;;5000793;28;20022;-93
2021/12/25 00:43:45;;;;;;;5.80;2.95;;;5.10;99.90;;;;;;5013203;28;20034;-94
2021/12/25 00:46:12;;;;;;;9.23;1.77;;;5.00;99.90;;;;;;4989373;28;20042;-94
2021/12/25 00:48:38;;;;;;;9.68;1.73;;;5.00;99.90;;;;;;4976392;28;20023;-95
2021/12/25 00:51:05;;;;;;;7.65;2.15;;;5.00;99.90;;;;;;4979424;28;20026;-94
2021/12/25 00:53:32;;;;;;;6.78;1.90;;;5.10;99.90;;;;;;4995253;28;20109;-93
2021/12/25 00:55:58;;;;;;;8.00;3.28;;;5.10;99.90;;;;;;4980029;28;20015;-95
2021/12/25 00:58:24;;;;;;;15.15;2.60;;;5.00;99.90;;;;;;4968731;28;20093;-94
2021/12/25 01:00:51;;;;;;;11.82;2.42;;;5.00;99.90;;;;;;4978277;28;20033;-95
2021/12/25 01:03:17;;;;;;;11.45;2.70;;;5.00;99.90;;;;;;4970677;28;20526;-94
2021/12/25 01:05:42;;;;;;;11.68;2.80;;;5.10;99.90;;;;;;4986284;28;20487;-93
2021/12/25 01:08:10;;;;;;;9.80;2.80;;;5.00;99.90;;;;;;4994126;28;20057;-94
2021/12/25 01:10:37;;;;;;;10.13;2.30;;;5.00;99.90;;;;;;4974254;28;20067;-93
2021/12/25 01:13:13;;;;;;;7.47;2.53;;;5.00;99.90;;;;;;4977373;28;20022;-94
2021/12/25 01:24:19;;;;;;;8.23;2.30;;;5.00;99.90;;;;;;4995182;28;20126;-92
2021/12/25 01:40:17;;;;;;;11.32;1.45;;;5.00;99.90;;;;;;5000973;28;20445;-94
2021/12/25 01:48:22;;;;;;;6.20;1.20;;;4.90;99.90;;;;;;5004539;28;20068;-95
2021/12/25 01:50:48;;;;;;;7.95;1.50;;;5.00;99.90;;;;;;4987440;28;20037;-93
2021/12/25 01:53:14;;;;;;;12.60;1.90;;;5.00;99.90;;;;;;5003246;28;20030;-94
2021/12/25 01:55:40;;;;;;;6.65;1.60;;;4.90;99.90;;;;;;4997967;28;20033;-95
2021/12/25 01:58:06;;;;;;;5.60;1.20;;;4.90;99.90;;;;;;4982126;28;20045;-94
2021/12/25 02:00:42;;;;;;;7.45;1.63;;;5.00;99.90;;;;;;4981458;28;20113;-94
2021/12/25 02:03:11;;;;;;;6.72;1.73;;;5.00;99.90;;;;;;4973665;28;20046;-95
2021/12/25 02:05:40;;;;;;;8.45;1.83;;;4.90;99.90;;;;;;4972825;28;20173;-92
2021/12/25 02:08:06;;;;;;;5.20;1.48;;;4.90;99.90;;;;;;4994399;28;20018;-93
2021/12/25 02:10:32;;;;;;;11.68;1.70;;;4.90;99.90;;;;;;4980563;28;20030;-92
2021/12/25 02:12:58;;;;;;;5.75;1.70;;;4.90;99.90;;;;;;4978135;28;20034;-94
2021/12/25 02:15:26;;;;;;;7.50;1.67;;;4.90;99.90;;;;;;4998854;28;20018;-93
2021/12/25 02:18:10;;;;;;;10.25;1.80;;;4.90;99.90;;;;;;4976205;28;20038;-93
2021/12/25 02:20:48;;;;;;;6.18;1.55;;;4.90;99.90;;;;;;4995425;28;20026;-94
2021/12/25 02:23:19;;;;;;;8.48;1.75;;;4.90;99.90;;;;;;4978340;28;20038;-93
2021/12/25 02:25:46;;;;;;;11.20;1.90;;;4.80;99.90;;;;;;4972098;28;20572;-93
2021/12/25 02:28:13;;;;;;;5.80;1.80;;;4.80;99.90;;;;;;4988988;28;20105;-93
2021/12/25 02:30:41;;;;;;;8.50;2.08;;;4.80;99.90;;;;;;4979806;28;20027;-93
2021/12/25 02:33:07;;;;;;;7.93;2.00;;;4.80;99.90;;;;;;4974489;28;20077;-92
2021/12/25 02:35:33;;;;;;;18.83;2.58;;;4.80;99.90;;;;;;4979080;28;20495;-94
2021/12/25 02:37:59;;;;;;;9.93;2.33;;;4.80;99.90;;;;;;4995318;28;20029;-93
2021/12/25 02:40:25;;;;;;;7.20;1.65;;;4.80;99.90;;;;;;4971344;28;20047;-93
2021/12/25 02:42:50;;;;;;;16.40;1.60;;;4.70;99.90;;;;;;4986859;28;20022;-93
2021/12/25 02:45:18;;;;;;;13.93;3.05;;;4.70;99.90;;;;;;4980525;28;20038;-92
2021/12/25 02:47:50;;;;;;;4.97;1.33;;;4.70;99.90;;;;;;4997335;28;20034;-95
2021/12/25 02:50:34;;;;;;;6.45;1.45;;;4.70;99.90;;;;;;4999473;28;20153;-92
2021/12/25 02:53:02;;;;;;;6.00;1.90;;;4.70;99.90;;;;;;5015196;28;20026;-94
2021/12/25 02:55:28;;;;;;;7.47;1.60;;;4.70;99.90;;;;;;4996935;28;20029;-93
2021/12/25 02:57:55;;;;;;;10.23;1.25;;;4.70;99.90;;;;;;4999803;28;20033;-92
2021/12/25 03:00:30;;;;;;;5.80;1.20;;;4.70;99.90;;;;;;5001004;28;20079;-95
2021/12/25 03:02:57;;;;;;;3.05;0.90;;;4.70;99.90;;;;;;4999339;28;20467;-92
2021/12/25 03:05:24;;;;;;;7.22;1.10;;;4.70;99.90;;;;;;4997863;28;20029;-93
2021/12/25 03:07:50;;;;;;;4.18;1.33;;;4.70;99.90;;;;;;4998284;28;20022;-94
2021/12/25 03:10:17;;;;;;;2.10;1.20;;;4.70;99.90;;;;;;4998169;28;20037;-94
2021/12/25 03:12:53;;;;;;;9.80;2.00;;;4.70;99.90;;;;;;4998460;28;20022;-93
2021/12/25 03:15:28;;;;;;;5.05;1.52;;;4.70;99.90;;;;;;4998558;28;20506;-93
2021/12/25 03:17:56;;;;;;;8.15;2.00;;;4.60;99.90;;;;;;4998027;28;20041;-92
2021/12/25 03:20:22;;;;;;;5.95;1.50;;;4.70;99.90;;;;;;4998328;28;20082;-94
2021/12/25 03:22:48;;;;;;;6.13;1.70;;;4.70;99.90;;;;;;4998404;28;20037;-94
2021/12/25 03:25:16;;;;;;;15.48;2.35;;;4.60;99.90;;;;;;4997560;28;20064;-93
2021/12/25 03:27:47;;;;;;;5.82;1.60;;;4.60;99.90;;;;;;4997513;28;20029;-93
2021/12/25 03:30:16;;;;;;;;;;;4.60;99.90;;;;;;4998325;28;20487;-94
2021/12/25 03:32:43;;;;;;;6.82;2.00;;;4.60;99.90;;;;;;4997080;28;19932;-92
2021/12/25 03:35:09;;;;;;;10.27;1.90;;;4.60;99.90;;;;;;4997017;28;20057;-93
2021/12/25 03:37:35;;;;;;;7.28;1.63;;;4.60;99.90;;;;;;4997012;28;20053;-95
2021/12/25 03:40:01;;;;;;;9.82;1.70;;;4.60;99.90;;;;;;4997119;28;20080;-93
2021/12/25 03:42:26;;;;;;;8.25;1.67;;;4.60;99.90;;;;;;4997176;28;20447;-94
2021/12/25 03:44:52;;;;;;;7.38;1.85;;;4.60;99.90;;;;;;4996796;28;20042;-94
2021/12/25 03:47:29;;;;;;;4.93;1.63;;;4.60;99.90;;;;;;4980809;28;20065;-94
2021/12/25 03:58:15;;;;;;;5.85;1.27;;;4.60;99.90;;;;;;4994588;28;20033;-93
2021/12/25 04:00:43;;;;;;;9.15;2.17;;;4.60;99.90;;;;;;4977873;28;20053;-96
2021/12/25 04:03:17;;;;;;;7.63;1.58;;;4.60;99.90;;;;;;4975554;28;20034;-91
2021/12/25 04:05:45;;;;;;;3.72;1.02;;;4.60;99.90;;;;;;4977126;28;20026;-94
2021/12/25 04:08:14;;;;;;;7.75;1.45;;;4.60;99.90;;;;;;4968886;28;20420;-95
2021/12/25 04:10:44;;;;;;;9.93;1.50;;;4.60;99.90;;;;;;4965988;28;20035;-93
2021/12/25 04:13:14;;;;;;;9.13;1.80;;;4.60;99.90;;;;;;4976856;28;20113;-94
2021/12/25 04:15:40;;;;;;;7.70;1.65;;;4.60;99.90;;;;;;4968551;28;20026;-93
2021/12/25 04:18:06;;;;;;;8.18;2.20;;;4.60;99.90;;;;;;4987707;28;20031;-93
2021/12/25 04:20:32;;;;;;;10.40;2.03;;;4.60;99.90;;;;;;4974702;28;20030;-94
2021/12/25 04:23:10;;;;;;;14.50;2.67;;;4.50;99.90;;;;;;4993575;28;20049;-93
2021/12/25 04:25:36;;;;;;;8.88;1.83;;;4.50;99.90;;;;;;4974064;28;20088;-94
2021/12/25 04:28:20;;;;;;;7.10;2.05;;;4.60;99.90;;;;;;4982203;28;20041;-91
2021/12/25 04:31:05;;;;;;;10.35;2.42;;;4.60;99.90;;;;;;4969179;28;20034;-95
2021/12/25 05:03:51;;;;;;;10.68;2.92;;;4.50;99.90;;;;;;4906417;29;20095;-92
2021/12/25 05:06:17;;;;;;;12.98;1.65;;;4.50;99.90;;;;;;4889954;29;20044;-92
2021/12/25 05:08:43;;;;;;;13.23;2.42;;;4.50;99.90;;;;;;4907024;29;20558;-93
2021/12/25 05:11:09;;;;;;;6.55;1.20;;;4.50;99.90;;;;;;4906608;29;20020;-93
2021/12/25 05:13:35;;;;;;;13.85;1.90;;;4.50;99.90;;;;;;4946289;28;20034;-93
2021/12/25 05:16:02;;;;;;;9.90;1.75;;;4.50;99.90;;;;;;4980569;28;20027;-92
2021/12/25 05:18:29;;;;;;;12.30;2.55;;;4.50;99.90;;;;;;4979901;28;20026;-93
2021/12/25 05:20:54;;;;;;;10.35;1.40;;;4.50;99.90;;;;;;4985783;28;20038;-94
2021/12/25 05:23:20;;;;;;;15.45;1.90;;;4.50;99.90;;;;;;4985654;28;20030;-95
2021/12/25 05:25:49;;;;;;;12.57;1.95;;;4.50;99.90;;;;;;4983451;28;20117;-94
2021/12/25 05:28:23;;;;;;;7.50;1.88;;;4.50;99.90;;;;;;4973588;28;20027;-93
2021/12/25 05:30:49;;;;;;;13.02;1.77;;;4.50;99.90;;;;;;4978275;28;20125;-93
2021/12/25 05:33:15;;;;;;;12.35;1.80;;;4.50;99.90;;;;;;4975725;28;20109;-95
2021/12/25 05:35:41;;;;;;;11.07;2.50;;;4.50;99.90;;;;;;4975570;28;20038;-94
2021/12/25 05:38:13;;;;;;;11.27;1.75;;;4.50;99.90;;;;;;4980917;28;20030;-93
2021/12/25 05:40:39;;;;;;;11.10;1.95;;;4.50;99.90;;;;;;4975491;28;20053;-93
2021/12/25 05:43:05;;;;;;;12.20;2.17;;;4.60;99.90;;;;;;4975389;28;20480;-94
2021/12/25 05:45:31;;;;;;;12.75;1.85;;;4.60;99.90;;;;;;4975837;28;20030;-94
2021/12/25 05:47:57;;;;;;;9.05;1.88;;;4.50;99.90;;;;;;4996174;28;20019;-93
2021/12/25 05:50:24;;;;;;;14.15;1.60;;;4.50;99.90;;;;;;4968668;28;20026;-94
2021/12/25 05:52:50;;;;;;;13.35;1.55;;;4.50;99.90;;;;;;4992288;28;20022;-94
2021/12/25 05:55:15;;;;;;;9.02;1.40;;;4.50;99.90;;;;;;4972993;28;20034;-93
2021/12/25 05:57:41;;;;;;;15.57;1.75;;;4.50;99.90;;;;;;4991067;28;20038;-92
2021/12/25 06:00:09;;;;;;;7.05;1.42;;;4.40;99.90;;;;;;4971812;28;20037;-94
2021/12/25 06:02:36;;;;;;;10.13;1.55;;;4.40;99.90;;;;;;4972963;28;20030;-93
2021/12/25 06:05:04;;;;;;;3.97;1.27;;;4.40;99.90;;;;;;4972549;28;20049;-93
2021/12/25 06:07:31;;;;;;;10.43;1.15;;;4.30;99.90;;;;;;4971949;28;20110;-94
2021/12/25 06:10:00;;;;;;;4.75;1.23;;;4.30;99.90;;;;;;4974752;28;20034;-94
2021/12/25 06:12:36;;;;;;;3.88;1.30;;;4.30;99.90;;;;;;4975182;28;20113;-93
2021/12/25 06:15:09;;;;;;;9.85;1.70;;;4.30;99.90;;;;;;4974990;28;20022;-92
2021/12/25 06:17:35;;;;;;;9.63;1.10;;;4.20;99.90;;;;;;4971342;28;20042;-94
2021/12/25 06:20:01;;;;;;;4.85;1.00;;;4.20;99.90;;;;;;4981984;28;20034;-94
2021/12/25 06:22:27;;;;;;;5.60;1.38;;;4.20;99.90;;;;;;4972635;28;20499;-93
2021/12/25 06:24:52;;;;;;;11.88;1.45;;;4.20;99.90;;;;;;4991892;28;20034;-93
2021/12/25 06:27:20;;;;;;;14.52;1.10;;;4.10;99.90;;;;;;4976401;28;20553;-93
2021/12/25 06:29:46;;;;;;;7.40;2.00;;;4.10;99.90;;;;;;4976293;28;20022;-93
2021/12/25 06:32:12;;;;;;;7.82;1.17;;;4.10;99.90;;;;;;4976260;28;20019;-93
2021/12/25 06:34:39;;;;;;;8.82;1.92;;;4.10;99.90;;;;;;4979812;28;20034;-94
2021/12/25 06:37:05;;;;;;;10.75;1.35;;;4.10;99.90;;;;;;4978433;28;20026;-93
2021/12/25 06:39:31;;;;;;;5.47;1.00;;;4.10;99.90;;;;;;4978254;28;20471;-94
2021/12/25 06:41:57;;;;;;;9.57;1.52;;;4.00;99.90;;;;;;4978944;28;20034;-93
2021/12/25 06:44:25;;;;;;;6.72;1.38;;;4.00;99.90;;;;;;4994751;28;20049;-92
2021/12/25 06:46:55;;;;;;;9.18;1.38;;;4.00;99.90;;;;;;4994715;28;20074;-93
2021/12/25 06:49:22;;;;;;;5.70;1.17;;;3.90;99.90;;;;;;4980763;28;20065;-93
2021/12/25 06:51:49;;;;;;;9.48;1.55;;;3.90;99.90;;;;;;4978686;28;20029;-93
2021/12/25 06:54:16;;;;;;;6.47;1.65;;;4.00;99.90;;;;;;4994525;28;20058;-93
2021/12/25 06:56:46;;;;;;;6.15;1.40;;;4.00;99.90;;;;;;4994747;28;20022;-93
2021/12/25 06:59:12;;;;;;;4.55;2.22;;;4.00;99.90;;;;;;4994745;28;20065;-93
2021/12/25 07:01:39;;;;;;;5.28;1.60;;;4.00;99.90;;;;;;4994784;28;20061;-93
2021/12/25 07:04:06;;;;;;;7.70;1.30;;;3.90;99.90;;;;;;4994588;28;20031;-95
2021/12/25 07:06:33;;;;;;;4.57;1.02;;;3.90;99.90;;;;;;4994587;28;20022;-93
2021/12/25 07:08:59;;;;;;;9.00;1.50;;;3.90;99.90;;;;;;4994841;28;20034;-94
2021/12/25 07:11:25;;;;;;;6.70;1.20;;;3.90;99.90;;;;;;4994967;28;20023;-92
2021/12/25 07:13:51;;;;;;;5.22;1.10;;;3.90;99.90;;;;;;4995419;28;20472;-93
2021/12/25 07:16:18;;;;;;;5.75;1.10;;;3.80;99.90;;;;;;4996930;28;20030;-93
2021/12/25 07:18:44;;;;;;;9.35;2.05;;;3.80;99.90;;;;;;4978876;28;20030;-92
2021/12/25 07:21:10;;;;;;;8.32;1.17;;;3.80;99.90;;;;;;4978130;28;20404;-92
2021/12/25 07:23:36;;;;;;;7.50;1.33;;;3.70;99.90;;;;;;4978148;28;20037;-93
2021/12/25 07:26:02;;;;;;;7.63;1.30;;;3.70;99.90;;;;;;4978350;28;20081;-92
2021/12/25 07:28:28;;;;;;;12.85;1.13;;;3.70;99.90;;;;;;4978299;28;20117;-92
2021/12/25 07:30:56;;;;;;;9.82;1.20;;;3.60;99.90;;;;;;4978217;28;20038;-92
2021/12/25 07:33:22;;;;;;;12.95;1.38;;;3.60;99.90;;;;;;4983161;28;20033;-92
2021/12/25 07:35:48;;;;;;;7.38;1.50;;;3.60;99.90;;;;;;4981100;28;20034;-92
2021/12/25 07:38:15;;;;;;;4.88;1.30;;;3.50;99.90;;;;;;4978809;28;20022;-93
2021/12/25 07:40:41;;;;;;;7.63;1.38;;;3.50;99.90;;;;;;4978470;28;20023;-93
2021/12/25 07:43:07;;;;;;;10.45;1.70;;;3.40;99.90;;;;;;4978033;28;20046;-95
2021/12/25 07:45:33;;;;;;;4.47;1.30;;;3.40;99.90;;;;;;4977113;28;20035;-93
2021/12/25 07:48:02;;;;;;;10.82;1.20;;;3.40;99.90;;;;;;4967657;28;20038;-93
2021/12/25 07:50:31;;;;;;;9.20;1.45;;;3.30;99.90;;;;;;4958712;28;20034;-93
2021/12/25 07:52:58;;;;;;;10.40;1.92;;;3.30;99.90;;;;;;4958452;28;20027;-93
2021/12/25 07:55:25;;;;;;;11.10;2.05;;;3.30;99.90;;;;;;4958049;28;20037;-93
2021/12/25 07:57:55;;;;;;;9.40;1.45;;;3.20;99.90;;;;;;4958387;28;20062;-92
2021/12/25 08:00:21;;;;;;;9.50;1.77;;;3.20;99.90;;;;;;4958087;28;20076;-93
2021/12/25 08:02:46;;;;;;;5.40;1.15;;;3.20;99.90;;;;;;4958611;28;20540;-92
2021/12/25 08:05:12;;;;;;;7.53;1.23;;;3.10;99.90;;;;;;4974622;28;20049;-94
2021/12/25 08:07:38;;;;;;;9.50;1.55;;;3.10;99.90;;;;;;4974300;28;20060;-93
2021/12/25 08:10:18;;;;;;;11.68;1.58;;;3.10;99.90;;;;;;4974661;28;20098;-94
2021/12/25 08:12:49;;;;;;;15.13;2.17;;;3.10;99.90;;;;;;4974382;28;20417;-93
2021/12/25 08:15:17;;;;;;;15.90;1.75;;;3.10;99.90;;;;;;4972198;28;20277;-94
2021/12/25 08:17:43;;;;;;;15.55;2.10;;;3.10;99.90;;;;;;4976845;28;20037;-92
2021/12/25 08:20:10;;;;;;;20.52;2.50;;;3.00;99.90;;;;;;4977423;28;20038;-93
2021/12/25 08:22:36;;;;;;;13.48;2.10;;;3.00;99.90;;;;;;4977659;28;20046;-94
2021/12/25 08:25:04;;;;;;;11.60;1.65;;;3.00;99.90;;;;;;4977564;28;20072;-94
2021/12/25 08:27:30;;;;;;;17.88;2.55;;;2.90;99.90;;;;;;4977380;28;20033;-92
2021/12/25 08:29:56;;;;;;;15.93;2.03;;;2.90;99.90;;;;;;4977274;28;20037;-93
2021/12/25 08:32:22;;;;;;;21.63;1.88;;;2.90;99.90;;;;;;4977430;28;20022;-95
2021/12/25 08:34:47;;;;;;;22.15;2.13;;;3.00;99.90;;;;;;4977854;28;20076;-93
2021/12/25 08:37:14;;;;;;;15.82;1.98;;;2.90;99.90;;;;;;4977998;28;20062;-92
2021/12/25 08:39:40;;;;;;;12.43;2.03;;;2.90;99.90;;;;;;4978208;28;20038;-93
2021/12/25 08:42:08;;;;;;;16.35;1.92;;;2.90;99.90;;;;;;4986693;28;20018;-92
2021/12/25 08:45:04;;;;;;;15.52;1.80;;;2.90;99.90;;;;;;4971058;28;20070;-93
2021/12/25 08:47:35;;;;;;;6.15;1.95;;;2.80;99.90;;;;;;4984606;28;20071;-92
2021/12/25 08:50:04;;;;;;;13.23;2.00;;;2.90;99.90;;;;;;4973923;28;20028;-94
2021/12/25 08:52:30;;;;;;;11.90;1.92;;;2.80;99.90;;;;;;4985550;28;20029;-92
2021/12/25 08:54:56;;;;;;;13.52;2.58;;;2.90;99.90;;;;;;4974614;28;20137;-94
2021/12/25 08:57:22;;;;;;;14.07;1.60;;;2.80;99.90;;;;;;4981142;28;20030;-93
2021/12/25 08:59:54;;;;;;;13.57;1.63;;;2.90;99.90;;;;;;4975711;28;20027;-92
2021/12/25 09:02:20;;;;;;;17.73;1.70;;;2.80;99.90;;;;;;4976339;28;20018;-94
2021/12/25 09:04:49;;;;;;;16.30;1.85;;;2.80;99.90;;;;;;4968981;28;20045;-92
2021/12/25 09:07:15;;;;;;;14.15;1.70;;;2.80;99.90;;;;;;4976313;28;20114;-93
2021/12/25 09:09:42;;;;;;;15.10;1.48;;;2.90;99.90;;;;;;4975980;28;20022;-93
2021/12/25 09:12:11;;;;;;;17.48;1.63;;;2.90;99.90;;;;;;4975975;28;20034;-94
2021/12/25 09:14:38;;;;;;;11.98;1.67;;;2.80;99.90;;;;;;4976538;28;20040;-94
2021/12/25 09:17:04;;;;;;;14.68;1.35;;;2.80;99.90;;;;;;4974092;28;20026;-94
2021/12/25 09:19:30;;;;;;;10.40;1.35;;;2.90;99.90;;;;;;4992246;28;20018;-93
2021/12/25 09:21:57;;;;;;;13.30;2.25;;;2.80;99.90;;;;;;4977531;28;20072;-92
2021/12/25 09:24:25;;;;;;;5.20;1.25;;;2.80;99.90;;;;;;4995349;28;20068;-94
2021/12/25 09:26:51;;;;;;;11.38;1.30;;;2.90;99.90;;;;;;4990590;28;20167;-93
2021/12/25 09:29:17;;;;;;;15.15;1.50;;;2.80;99.90;;;;;;4993038;28;20031;-92
2021/12/25 09:31:43;;;;;;;12.70;1.35;;;2.90;99.90;;;;;;4992861;28;20038;-93
2021/12/25 09:34:09;;;;;;;16.15;1.58;;;2.90;99.90;;;;;;4993579;28;20034;-93
2021/12/25 09:36:35;;;;;;;11.82;1.50;;;2.90;99.90;;;;;;4993002;28;20033;-95
2021/12/25 09:39:03;;;;;;;11.02;1.15;;;2.90;99.90;;;;;;4993435;28;20027;-93
2021/12/25 09:41:29;;;;;;;19.10;2.13;;;2.90;99.90;;;;;;4993040;28;20054;-93
2021/12/25 09:43:56;;;;;;;10.98;1.23;;;2.90;99.90;;;;;;4993110;28;20026;-93
2021/12/25 09:46:21;;;;;;;10.30;1.10;;;2.90;99.90;;;;;;4993519;28;20052;-93
2021/12/25 09:48:50;;;;;;;9.60;1.40;;;2.90;99.90;;;;;;4993110;28;20114;-93
2021/12/25 09:51:16;;;;;;;8.77;1.38;;;2.90;99.90;;;;;;4978368;28;20077;-93
2021/12/25 09:53:42;;;;;;;18.85;2.10;;;2.90;99.90;;;;;;4977627;28;20592;-92
2021/12/25 09:56:08;;;;;;;14.55;2.88;;;2.90;99.90;;;;;;4986186;28;20022;-93
2021/12/25 09:58:34;;;;;;;23.70;3.30;;;2.90;99.90;;;;;;4973605;28;20486;-93
2021/12/25 10:01:02;;;;;;;18.20;2.30;;;2.90;99.90;;;;;;4991439;28;20026;-93
2021/12/25 10:03:43;;;;;;;17.15;1.92;;;2.90;99.90;;;;;;4978303;28;20097;-92
2021/12/25 10:06:09;;;;;;;14.05;1.92;;;2.90;99.90;;;;;;4976244;28;20058;-93
2021/12/25 10:08:38;;;;;;;14.48;2.10;;;2.90;99.90;;;;;;4977361;28;20018;-92
2021/12/25 10:11:05;;;;;;;10.32;1.63;;;2.90;99.90;;;;;;4976919;28;20038;-92
2021/12/25 10:13:38;;;;;;;14.88;1.55;;;2.90;99.90;;;;;;4978568;28;20030;-92
2021/12/25 10:16:31;;;;;;;13.63;1.70;;;2.80;99.90;;;;;;4979662;28;20032;-93
2021/12/25 10:19:17;;;;;;;15.63;1.92;;;2.90;99.90;;;;;;4979312;28;20081;-91
2021/12/25 10:21:43;;;;;;;27.38;3.63;;;2.80;99.90;;;;;;4978838;28;20101;-93
2021/12/25 10:24:28;;;;;;;15.35;2.15;;;2.80;99.90;;;;;;4979509;28;20042;-91
2021/12/25 10:27:07;;;;;;;14.00;1.58;;;2.90;99.90;;;;;;4980131;28;20387;-92
2021/12/25 10:29:33;;;;;;;8.98;2.65;;;2.90;99.90;;;;;;5000501;28;20015;-92
2021/12/25 10:32:12;;;;;;;8.18;1.40;;;2.90;99.90;;;;;;4983114;28;20029;-92
2021/12/25 10:34:38;;;;;;;16.38;2.00;;;2.90;99.90;;;;;;4990380;28;20030;-92
2021/12/25 10:37:08;;;;;;;13.60;1.42;;;2.90;99.90;;;;;;4977615;28;20026;-92
2021/12/25 10:39:34;;;;;;;13.40;1.45;;;2.90;99.90;;;;;;4977802;28;20431;-93
2021/12/25 10:42:10;;;;;;;18.30;1.95;;;2.90;99.90;;;;;;4977806;28;20030;-91
2021/12/25 10:44:38;;;;;;;10.48;1.58;;;2.90;99.90;;;;;;4993338;28;20038;-91
2021/12/25 10:47:11;;;;;;;13.30;2.42;;;2.90;99.90;;;;;;4977196;28;20656;-93
2021/12/25 10:49:43;;;;;;;9.68;1.92;;;2.90;99.90;;;;;;4977414;28;20034;-92
2021/12/25 10:52:29;;;;;;;8.38;1.55;;;2.90;99.90;;;;;;4976440;28;20015;-93
2021/12/25 10:54:57;;;;;;;12.85;1.50;;;3.00;99.90;;;;;;4977397;28;20084;-92
2021/12/25 10:57:55;;;;;;;19.88;1.70;;;3.00;99.90;;;;;;4977715;28;20018;-92
2021/12/25 11:00:21;;;;;;;16.17;1.63;;;3.00;99.90;;;;;;4976994;28;20026;-93
2021/12/25 11:03:02;;;;;;;15.90;1.95;;;3.00;99.90;;;;;;4979219;28;20034;-94
2021/12/25 11:05:29;;;;;;;;;;;3.00;99.90;;;;;;4983236;28;20440;-93
2021/12/25 11:08:04;;;;;;;11.75;1.52;;;3.00;99.90;;;;;;4980551;28;19916;-94
2021/12/25 11:10:30;;;;;;;14.32;3.75;;;3.00;99.90;;;;;;4993931;28;20081;-92
2021/12/25 11:12:58;;;;;;;10.32;1.98;;;3.00;99.90;;;;;;4978822;28;20599;-91
2021/12/25 11:15:27;;;;;;;11.48;1.80;;;3.00;99.90;;;;;;4979602;28;20030;-93
2021/12/25 11:18:04;;;;;;;12.52;1.85;;;3.00;99.90;;;;;;4979137;28;20456;-95
2021/12/25 11:20:33;;;;;;;14.07;1.80;;;2.90;99.90;;;;;;4984090;28;20034;-93
2021/12/25 11:23:00;;;;;;;12.93;1.50;;;2.90;99.90;;;;;;4978262;28;20081;-90
2021/12/25 11:25:30;;;;;;;7.43;1.27;;;2.90;99.90;;;;;;4978162;28;20121;-92
2021/12/25 11:27:57;;;;;;;14.02;1.95;;;2.90;99.90;;;;;;4978075;28;20133;-94
2021/12/25 11:30:26;;;;;;;11.73;1.77;;;2.90;99.90;;;;;;4979242;28;20034;-92
2021/12/25 11:32:54;;;;;;;13.13;1.50;;;2.90;99.90;;;;;;4980347;28;20030;-93
2021/12/25 11:35:20;;;;;;;12.85;1.90;;;2.90;99.90;;;;;;4979285;28;20040;-93
2021/12/25 11:37:48;;;;;;;13.52;2.88;;;2.90;99.90;;;;;;4978948;28;20022;-92
2021/12/25 11:40:16;;;;;;;12.88;3.25;;;2.80;99.90;;;;;;4986863;28;20030;-92
2021/12/25 11:42:46;;;;;;;10.93;2.25;;;2.80;99.90;;;;;;4983244;28;20117;-92
2021/12/25 11:45:18;;;;;;;11.38;2.03;;;2.80;99.90;;;;;;4979974;28;20048;-92
2021/12/25 11:47:52;;;;;;;14.93;2.55;;;2.80;99.90;;;;;;4979538;28;20062;-93
2021/12/25 11:50:45;;;;;;;10.85;1.70;;;2.80;99.90;;;;;;4978994;28;20109;-92
2021/12/25 11:53:20;;;;;;;11.43;1.33;;;2.90;99.90;;;;;;4978281;28;20022;-93
2021/12/25 11:58:52;;;;;;;11.68;2.80;;;2.90;99.90;;;;;;4995834;28;20088;-93
2021/12/25 12:01:19;;;;;;;10.02;1.65;;;3.00;99.90;;;;;;4981790;28;20492;-92
2021/12/25 12:03:57;;;;;;;12.30;2.58;;;2.90;99.90;;;;;;4995767;28;20035;-92
2021/12/25 12:06:44;;;;;;;11.75;2.35;;;3.00;99.90;;;;;;4978162;28;20023;-93
2021/12/25 12:09:14;;;;;;;12.57;2.05;;;3.00;99.90;;;;;;4978165;28;20022;-92
2021/12/25 12:11:45;;;;;;;18.67;3.53;;;3.00;99.90;;;;;;4997378;28;20065;-93
2021/12/25 12:14:27;;;;;;;17.80;3.63;;;2.90;99.90;;;;;;4984675;28;20506;-91
2021/12/25 12:17:24;;;;;;;9.88;2.08;;;2.90;99.90;;;;;;4991649;28;20125;-91
2021/12/25 12:19:52;;;;;;;14.02;3.83;;;2.90;99.90;;;;;;4990926;28;20483;-92
2021/12/25 12:27:35;;;;;;;11.52;2.15;;;2.90;99.90;;;;;;5003138;28;20054;-92
2021/12/25 12:30:06;;;;;;;13.03;4.63;;;2.90;99.90;;;;;;4996879;28;20058;-93
2021/12/25 12:32:36;;;;;;;;;;;2.90;99.90;;;;;;4978237;28;20027;-92
2021/12/25 12:35:05;;;;;;;14.48;2.00;;;2.90;99.90;;;;;;4994434;28;19906;-92
2021/12/25 12:37:32;;;;;;;14.23;1.75;;;2.90;99.90;;;;;;4995421;28;20026;-92
2021/12/25 12:40:01;;;;;;;13.52;1.90;;;2.90;99.90;;;;;;4978219;28;20030;-92
2021/12/25 12:42:50;;;;;;;10.25;2.00;;;2.90;99.90;;;;;;4978094;28;20423;-91
2021/12/25 12:45:19;;;;;;;10.15;2.28;;;2.90;99.90;;;;;;4995449;28;20046;-92
2021/12/25 12:48:21;;;;;;;15.52;3.47;;;2.80;99.90;;;;;;4995542;28;20129;-92
2021/12/25 12:50:52;;;;;;;13.00;2.15;;;2.80;99.90;;;;;;4941231;28;20057;-93
2021/12/25 12:53:22;;;;;;;13.32;2.22;;;2.80;99.90;;;;;;4980727;28;20038;-92
2021/12/25 12:55:50;;;;;;;10.15;2.40;;;2.80;99.90;;;;;;4978961;28;20018;-91
2021/12/25 12:58:23;;;;;;;20.15;2.10;;;2.80;99.90;;;;;;4977818;28;20036;-92
2021/12/25 13:00:59;;;;;;;6.25;1.75;;;2.80;99.90;;;;;;4978533;28;20041;-93
2021/12/25 13:03:27;;;;;;;10.18;2.83;;;2.80;99.90;;;;;;4978608;28;20038;-93
2021/12/25 13:05:58;;;;;;;24.13;5.65;;;2.80;99.90;;;;;;4971385;28;20027;-94
2021/12/25 13:08:30;;;;;;;12.90;2.03;;;2.80;99.90;;;;;;4991923;28;20023;-94
2021/12/25 13:11:08;;;;;;;8.65;1.17;;;2.80;99.90;;;;;;4993553;28;20034;-92
2021/12/25 13:13:40;;;;;;;13.30;1.92;;;2.80;99.90;;;;;;4993894;28;20022;-93
2021/12/25 13:16:10;;;;;;;13.73;1.83;;;2.80;99.90;;;;;;4993060;28;20026;-93
2021/12/25 13:18:38;;;;;;;13.73;2.60;;;2.80;99.90;;;;;;4993260;28;20038;-93
2021/12/25 13:21:10;;;;;;;18.55;2.47;;;2.80;99.90;;;;;;4993614;28;20041;-94
2021/12/25 13:23:46;;;;;;;13.73;2.90;;;2.80;99.90;;;;;;4993666;28;20034;-92
2021/12/25 13:26:11;;;;;;;18.23;1.90;;;2.80;99.90;;;;;;4994087;28;20470;-92
2021/12/25 13:28:40;;;;;;;13.20;2.63;;;2.80;99.90;;;;;;4994782;28;20061;-92
2021/12/25 13:31:12;;;;;;;12.02;2.25;;;2.80;99.90;;;;;;4993848;28;20038;-92
2021/12/25 13:33:48;;;;;;;11.60;2.47;;;2.80;99.90;;;;;;4981944;28;20030;-93
2021/12/25 13:36:19;;;;;;;12.43;2.97;;;2.80;99.90;;;;;;4993008;28;20026;-92
2021/12/25 13:38:50;;;;;;;;;;;2.80;99.90;;;;;;4976762;28;20027;-93
2021/12/25 13:41:27;;;;;;;12.40;2.17;;;2.80;99.90;;;;;;4976052;28;19909;-92
2021/12/25 13:44:03;;;;;;;10.25;1.58;;;2.80;99.90;;;;;;4974683;28;20030;-92
2021/12/25 13:46:41;;;;;;;10.65;2.65;;;2.80;99.90;;;;;;4996274;28;20050;-93
2021/12/25 13:49:24;;;;;;;10.98;1.90;;;2.80;99.90;;;;;;4997239;28;20443;-93
2021/12/25 13:51:49;;;;;;;10.00;1.83;;;2.80;99.90;;;;;;4982007;28;20110;-93
2021/12/25 13:54:22;;;;;;;8.55;1.60;;;2.70;99.90;;;;;;4980978;28;20132;-93
2021/12/25 13:56:51;;;;;;;7.72;1.70;;;2.70;99.90;;;;;;4981728;28;20145;-93
2021/12/25 13:59:18;;;;;;;13.23;1.63;;;2.70;99.90;;;;;;4978336;28;20034;-93
2021/12/25 14:01:45;;;;;;;14.25;1.63;;;2.70;99.90;;;;;;4982134;28;20034;-93
2021/12/25 14:04:13;;;;;;;11.65;2.55;;;2.60;99.90;;;;;;4980997;28;20087;-92
2021/12/25 14:06:39;;;;;;;9.85;2.20;;;2.60;99.90;;;;;;4980342;28;20034;-92
2021/12/25 14:09:06;;;;;;;13.63;2.60;;;2.70;99.90;;;;;;4980453;28;20494;-94
2021/12/25 14:11:33;;;;;;;10.25;2.15;;;2.70;99.90;;;;;;4980104;28;20113;-93
2021/12/25 14:14:04;;;;;;;16.60;2.65;;;2.70;99.90;;;;;;4980320;28;20044;-93
2021/12/25 14:16:29;;;;;;;12.68;2.53;;;2.70;99.90;;;;;;4980232;28;20022;-93
2021/12/25 14:18:55;;;;;;;17.98;2.05;;;2.60;99.90;;;;;;4980792;28;20037;-92
2021/12/25 14:21:23;;;;;;;9.63;2.25;;;2.70;99.90;;;;;;4981133;28;20045;-92
2021/12/25 14:24:04;;;;;;;15.43;3.00;;;2.70;99.90;;;;;;4979161;28;20050;-93
2021/12/25 14:26:30;;;;;;;13.70;2.10;;;2.70;99.90;;;;;;4981979;28;20030;-93